Clarendon, NC (28432)

7:26 AM EDT on March 31, 2015 (GMT -0400)
Columbus County Municipal | | Change Station
CLOSE
Current Station
Airport
Location: Whiteville,
Elevation: 98 ft
Nearby Weather Stations
Active Advisory: Special Statement

Elev 98 ft 34.28 °N, 78.71 °W | Updated 11 minutes ago

Clear
Clear
43 °F
Feels Like 43 °F
N
0
Wind Variable Wind from North

Today
High -- | Low -- °F
--% Chance of Precip.
Yesterday
High -- | Low -- °F
Precip. -- in
7:04 AM 7:35 PM
Waxing Gibbous, 86% visible
Pressure 30.05 in
Visibility 7.0 miles
Clouds Clear
Dew Point 41 °F
Humidity 94%
Rainfall 0.00 in
Snow Depth Not available.
UV 0 out of 12
Pollen 10.40 out of 12
Air Quality Not available.
Flu Activity Not available.
METAR KCPC 311115Z AUTO 00000KT 7SM CLR 06/05 A3005 RMK AO2 T00590050

More Conditions Fewer Conditions

Pressure 30.05 in
Visibility 7.0 miles
Clouds Clear
Dew Point 41 °F
Humidity 94%
Rainfall 0.00 in
Snow Depth Not available.
UV 0 out of 12
Pollen 10.40 out of 12
Air Quality Not available.
Flu Activity Not available.
METAR KCPC 311115Z AUTO 00000KT 7SM CLR 06/05 A3005 RMK AO2 T00590050

More Conditions Fewer Conditions

10-Day Weather Forecast

Almanac

Astronomy

Mar. 31, 2015 Rise Set
Actual Time
Civil Twilight
Nautical Twilight
Astronomical Twilight
Moon
Length of Visible Light
Length of Day
Tomorrow will be .
, % of the Moon is Illuminated

Today's Extremes

State Highs State Lows

Community

WunderPhotos

Upload Photos

1,809,743 photos uploaded!

WunderBlogs® & News

Nearby

Air Quality

  Air Quality AQ Index Pollutant
Not available.

Snow Depth

Station Depth Elevation

Earthquake Activity

City Distance Mag. Time & Date
Minimum magnitude displayed is 2.5.

Coastal Water Temperatures

Place Temperature

Stations

Nearby Weather Stations

Station Location Temp. Windchill Dew Point Humidity Wind Precip. Elev Updated Type
                   
Special Statement
Statement as of 3:40 AM EDT on March 31, 2015

... Increased fire danger this afternoon due to gusty winds and
low relative humidity...

Southwest winds this afternoon will increase to 15 to 25 mph with
occasional gusts to 30 mph. The winds will be accompanied by
relative humidity values between 20 and 30 percent.

Residents are urged to avoid outdoor burning this afternoon. Any
unattended fire should be immediately reported to the local Fire
Department.

For forestry officials... please advise the appropriate fire crews
in the field of this Fire Danger Statement.


8